Nibulon 1 — UUAS4 — position and weather

sailwx.info

Track history (hours):
 
Tides and Currents Weather Stations Pressure Air Temp Water Temp Dewpoint Dewpoint Depression Visibility Wind Speed Wind Dir Waves Ship Positions

Nibulon 1

Last reported at 2017-Feb-19 22:32 UTC. Time now 2017-Feb-21 03:06 UTC.
Position N 46°35' E 031°36'.

Length 38 m; draft 2.6 m.

Type: Tug. MMSI: 272641000.

Date/timePositionNaut miles runAvg speedWind from/ knotsBaromVisibWave heightAir tempDewpointWater temp
2017-Feb-19 22:32N 46°35' E 031°36'4 3.9
2017-Feb-19 21:24N 46°35' E 031°42'3 3.9
2017-Feb-19 20:33N 46°36' E 031°47'4 3.8
2017-Feb-19 19:33N 46°37' E 031°52'3 3.2
2017-Feb-19 18:33N 46°39' E 031°56'4 3.7
2017-Feb-19 17:34N 46°43' E 031°56'3 3.3
2017-Feb-19 16:34N 46°46' E 031°54'3 3.3
2017-Feb-19 15:33N 46°49' E 031°54'4 4.1
2017-Feb-19 14:34N 46°52' E 031°58'4 3.6
2017-Feb-19 13:34N 46°55' E 032°01'2 1.9
2017-Feb-19 12:29N 46°56' E 031°59'0 0.0
2017-Feb-19 11:29N 46°56' E 031°59'0 0.0
2017-Feb-19 10:32N 46°56' E 031°59'0 0.2
2017-Feb-19 09:32N 46°56' E 031°59'0 0.3
2017-Feb-19 08:33N 46°56' E 031°59'0 0.4
2017-Feb-19 07:30N 46°57' E 031°59'0 0.0
2017-Feb-19 06:29N 46°57' E 031°59'0 0.0
2017-Feb-19 05:29N 46°57' E 031°59'0 0.0
2017-Feb-19 04:29N 46°57' E 031°59'0 0.0
2017-Feb-19 03:29N 46°57' E 031°59'0 0.0
2017-Feb-19 02:29N 46°57' E 031°59'0 0.0
2017-Feb-19 01:29N 46°57' E 031°59'0 0.0
2017-Feb-19 00:29N 46°57' E 031°59'0 0.0
2017-Feb-18 23:31N 46°57' E 031°59'0 0.3
2017-Feb-18 22:31N 46°56' E 031°59'0 0.1
2017-Feb-18 21:31N 46°56' E 031°59'0 0.1
2017-Feb-18 20:31N 46°56' E 031°59'0 0.0
2017-Feb-18 19:31N 46°56' E 031°59'0 0.4
2017-Feb-18 18:31N 46°57' E 031°59'0 0.3
2017-Feb-18 17:28N 46°57' E 031°59'0 0.1
2017-Feb-18 16:33N 46°56' E 031°59'0 0.1
2017-Feb-18 15:32N 46°57' E 031°59'0 0.0
2017-Feb-18 14:32N 46°57' E 031°59'0 0.2
2017-Feb-18 13:31N 46°56' E 031°59'0 0.0
2017-Feb-18 12:32N 46°57' E 031°59'0 0.2
2017-Feb-18 11:32N 46°57' E 031°59'0 0.0
2017-Feb-18 10:32N 46°57' E 031°59'0 0.0
2017-Feb-18 09:32N 46°57' E 031°59'0 0.0
2017-Feb-18 08:32N 46°57' E 031°59'0 0.0
2017-Feb-18 07:32N 46°57' E 031°59'0 0.0
2017-Feb-18 06:32N 46°57' E 031°59'0 0.0
2017-Feb-18 05:32N 46°57' E 031°59'0 0.0
2017-Feb-18 04:32N 46°57' E 031°59'0 0.0
2017-Feb-18 03:32N 46°57' E 031°59'0 0.0
2017-Feb-18 02:32N 46°57' E 031°59'0 0.0
2017-Feb-18 01:32N 46°57' E 031°59'0 0.0
2017-Feb-18 00:32N 46°57' E 031°59'0 0.0
2017-Feb-17 23:32N 46°57' E 031°59'0 0.0
2017-Feb-17 22:32N 46°57' E 031°59'0 0.0
2017-Feb-17 21:32N 46°57' E 031°59'0 0.0
2017-Feb-17 20:32N 46°57' E 031°59'0 0.0
2017-Feb-17 19:32N 46°57' E 031°59'0 0.0
2017-Feb-17 18:32N 46°57' E 031°59'0 0.0
2017-Feb-17 17:32N 46°57' E 031°59'0 0.0
2017-Feb-17 16:32N 46°57' E 031°59'0 0.0
2017-Feb-17 15:32N 46°57' E 031°59'0 0.0
2017-Feb-17 14:32N 46°57' E 031°59'0 0.0
2017-Feb-17 13:32N 46°57' E 031°59'0 0.0
2017-Feb-17 12:32N 46°57' E 031°59'0 0.0
2017-Feb-17 11:32N 46°57' E 031°59'0 0.0
2017-Feb-17 10:32N 46°57' E 031°59'0 0.0
2017-Feb-17 09:32N 46°57' E 031°59'0 0.0
2017-Feb-17 08:26N 46°57' E 031°59'0 0.0
2017-Feb-17 07:32N 46°57' E 031°59'0 0.0
2017-Feb-17 06:32N 46°57' E 031°59'0 0.0
2017-Feb-17 05:32N 46°57' E 031°59'0 0.0
2017-Feb-17 04:32N 46°57' E 031°59'0 0.0
2017-Feb-17 03:29N 46°57' E 031°59'0 0.0
2017-Feb-17 02:32N 46°57' E 031°59'0 0.0
2017-Feb-17 01:32N 46°57' E 031°59'0 0.0
2017-Feb-17 00:32N 46°57' E 031°59'0 0.0
2017-Feb-16 23:32N 46°57' E 031°59'0 0.0
2017-Feb-16 22:32N 46°57' E 031°59'0 0.0
2017-Feb-16 21:32N 46°57' E 031°59'0 0.0
2017-Feb-16 20:32N 46°57' E 031°59'0 0.0
2017-Feb-16 19:26N 46°57' E 031°59'0 0.0
2017-Feb-16 18:32N 46°57' E 031°59'0 0.0
2017-Feb-16 17:32N 46°57' E 031°59'0 0.0
2017-Feb-16 16:32N 46°57' E 031°59'0 0.0
2017-Feb-16 15:32N 46°57' E 031°59'0 0.0
2017-Feb-16 14:32N 46°57' E 031°59'0 0.0
2017-Feb-16 13:32N 46°57' E 031°59'0 0.0
2017-Feb-16 12:32N 46°57' E 031°59'0 0.0
2017-Feb-16 11:32N 46°57' E 031°59'0 0.0
2017-Feb-16 10:32N 46°57' E 031°59'0 0.0
2017-Feb-16 09:32N 46°57' E 031°59'0 0.0
2017-Feb-16 08:32N 46°57' E 031°59'0 0.0
2017-Feb-16 07:32N 46°57' E 031°59'0 0.0
2017-Feb-16 06:32N 46°57' E 031°59'0 0.0
2017-Feb-16 05:32N 46°57' E 031°59'0 0.0
2017-Feb-16 04:32N 46°57' E 031°59'0 0.0
2017-Feb-16 03:32N 46°57' E 031°59'0 0.0
2017-Feb-16 02:32N 46°57' E 031°59'0 0.0
2017-Feb-16 01:32N 46°57' E 031°59'0 0.0
2017-Feb-16 00:32N 46°57' E 031°59'0 0.0
2017-Feb-15 23:32N 46°57' E 031°59'0 0.0
2017-Feb-15 22:32N 46°57' E 031°59'0 0.0
2017-Feb-15 21:32N 46°57' E 031°59'0 0.0
2017-Feb-15 20:32N 46°57' E 031°59'0 0.0
2017-Feb-15 19:32N 46°57' E 031°59'0 0.0
2017-Feb-15 18:29N 46°57' E 031°59'0 0.0
2017-Feb-15 17:32N 46°57' E 031°59'0 0.0
2017-Feb-15 16:32N 46°57' E 031°59'0 0.0
2017-Feb-15 15:32N 46°57' E 031°59'0 0.0
2017-Feb-15 14:32N 46°57' E 031°59'0 0.0
2017-Feb-15 13:32N 46°57' E 031°59'0 0.0
2017-Feb-15 12:32N 46°57' E 031°59'0 0.0
2017-Feb-15 11:32N 46°57' E 031°59'0 0.0
2017-Feb-15 10:32N 46°57' E 031°59'0 0.0
2017-Feb-15 09:32N 46°57' E 031°59'0 0.0
2017-Feb-15 08:32N 46°57' E 031°59'0 0.0
2017-Feb-15 07:32N 46°57' E 031°59'0 0.0
2017-Feb-15 06:32N 46°57' E 031°59'0 0.0
2017-Feb-15 05:32N 46°57' E 031°59'0 0.0
2017-Feb-15 04:32N 46°57' E 031°59'0 0.0
2017-Feb-15 03:32N 46°57' E 031°59'0 0.0
2017-Feb-15 02:32N 46°57' E 031°59'0 0.0
2017-Feb-15 01:32N 46°57' E 031°59'0 0.0
2017-Feb-15 00:32N 46°57' E 031°59'0 0.0
2017-Feb-14 23:26N 46°57' E 031°59'0 0.0
2017-Feb-14 22:32N 46°57' E 031°59'0 0.0
2017-Feb-14 21:32N 46°57' E 031°59'0 0.0
2017-Feb-14 20:32N 46°57' E 031°59'0 0.0
2017-Feb-14 19:32N 46°57' E 031°59'0 0.0
2017-Feb-14 18:32N 46°57' E 031°59'0 0.0
2017-Feb-14 17:32N 46°57' E 031°59'0 0.0
2017-Feb-14 16:32N 46°57' E 031°59'0 0.0
2017-Feb-14 15:32N 46°57' E 031°59'0 0.0
2017-Feb-14 14:29N 46°57' E 031°59'0 0.0
2017-Feb-14 13:32N 46°57' E 031°59'0 0.0
2017-Feb-14 12:32N 46°57' E 031°59'0 0.0
2017-Feb-14 11:32N 46°57' E 031°59'0 0.0
2017-Feb-14 10:29N 46°57' E 031°59'0 0.0
2017-Feb-14 09:32N 46°57' E 031°59'0 0.0
2017-Feb-14 08:32N 46°57' E 031°59'0 0.0
2017-Feb-14 07:32N 46°57' E 031°59'0 0.0
2017-Feb-14 06:32N 46°57' E 031°59'0 0.0
2017-Feb-14 05:32N 46°57' E 031°59'0 0.0
2017-Feb-14 04:32N 46°57' E 031°59'0 0.0
2017-Feb-14 03:32N 46°57' E 031°59'0 0.0
2017-Feb-14 02:32N 46°57' E 031°59'0 0.0
2017-Feb-14 01:32N 46°57' E 031°59'0 0.0
2017-Feb-14 00:32N 46°57' E 031°59'0 0.0
2017-Feb-13 23:32N 46°57' E 031°59'0 0.0
2017-Feb-13 22:32N 46°57' E 031°59'0 0.0
2017-Feb-13 21:32N 46°57' E 031°59'0 0.0
2017-Feb-13 20:29N 46°57' E 031°59'0 0.0
2017-Feb-13 19:32N 46°57' E 031°59'0 0.0
2017-Feb-13 18:29N 46°57' E 031°59'0 0.0
2017-Feb-13 17:32N 46°57' E 031°59'0 0.0
2017-Feb-13 16:32N 46°57' E 031°59'0 0.0
2017-Feb-13 15:32N 46°57' E 031°59'0 0.0
2017-Feb-13 14:32N 46°57' E 031°59'0 0.0
2017-Feb-13 13:32N 46°57' E 031°59'0 0.0
2017-Feb-13 12:32N 46°57' E 031°59'0 0.0
2017-Feb-13 11:32N 46°57' E 031°59'0 0.0
2017-Feb-13 10:32N 46°57' E 031°59'0 0.0
2017-Feb-13 09:32N 46°57' E 031°59'0 0.0
2017-Feb-13 08:32N 46°57' E 031°59'0 0.0
2017-Feb-13 07:29N 46°57' E 031°59'0 0.0
2017-Feb-13 06:32N 46°57' E 031°59'0 0.0
2017-Feb-13 05:32N 46°57' E 031°59'0 0.0
2017-Feb-13 04:32N 46°57' E 031°59'0 0.0
2017-Feb-13 03:32N 46°57' E 031°59'0 0.0
2017-Feb-13 02:32N 46°57' E 031°59'0 0.0
2017-Feb-13 01:32N 46°57' E 031°59'0 0.0
2017-Feb-13 00:32N 46°57' E 031°59'0 0.0
2017-Feb-12 23:32N 46°57' E 031°59'0 0.0
2017-Feb-12 22:32N 46°57' E 031°59'0 0.0
2017-Feb-12 21:32N 46°57' E 031°59'0 0.0
2017-Feb-12 20:32N 46°57' E 031°59'0 0.0
2017-Feb-12 19:32N 46°57' E 031°59'0 0.0
2017-Feb-12 18:32N 46°57' E 031°59'0 0.0
2017-Feb-12 17:32N 46°57' E 031°59'0 0.0
2017-Feb-12 16:32N 46°57' E 031°59'0 0.0
2017-Feb-12 15:32N 46°57' E 031°59'0 0.0
2017-Feb-12 14:32N 46°57' E 031°59'0 0.0
2017-Feb-12 13:32N 46°57' E 031°59'0 0.0
2017-Feb-12 12:32N 46°57' E 031°59'0 0.0
2017-Feb-12 11:32N 46°57' E 031°59'0 0.0
2017-Feb-12 10:29N 46°57' E 031°59'0 0.0
2017-Feb-12 09:32N 46°57' E 031°59'0 0.0
2017-Feb-12 08:32N 46°57' E 031°59'0 0.0
2017-Feb-12 07:32N 46°57' E 031°59'0 0.0
2017-Feb-12 06:32N 46°57' E 031°59'0 0.0
2017-Feb-12 05:32N 46°57' E 031°59'0 0.0
2017-Feb-12 04:32N 46°57' E 031°59'0 0.0
2017-Feb-12 03:32N 46°57' E 031°59'0 0.0
2017-Feb-12 02:32N 46°57' E 031°59'0 0.0
2017-Feb-12 01:32N 46°57' E 031°59'0 0.0
2017-Feb-12 00:32N 46°57' E 031°59'0 0.0
2017-Feb-11 23:32N 46°57' E 031°59'0 0.0
2017-Feb-11 22:32N 46°57' E 031°59'0 0.0
2017-Feb-11 21:32N 46°57' E 031°59'0 0.0
2017-Feb-11 20:32N 46°57' E 031°59'0 0.0
2017-Feb-11 19:32N 46°57' E 031°59'0 0.0
2017-Feb-11 18:32N 46°57' E 031°59'0 0.0
2017-Feb-11 17:32N 46°57' E 031°59'0 0.0
2017-Feb-11 16:32N 46°57' E 031°59'0 0.0
2017-Feb-11 15:32N 46°57' E 031°59'0 0.0
2017-Feb-11 14:32N 46°57' E 031°59'0 0.0
2017-Feb-11 13:32N 46°57' E 031°59'0 0.0
2017-Feb-11 12:32N 46°57' E 031°59'0 0.0
2017-Feb-11 11:32N 46°57' E 031°59'0 0.0
2017-Feb-11 10:29N 46°57' E 031°59'0 0.0
2017-Feb-11 09:32N 46°57' E 031°59'0 0.0
2017-Feb-11 08:32N 46°57' E 031°59'0 0.0
2017-Feb-11 07:32N 46°57' E 031°59'0 0.0
2017-Feb-11 06:32N 46°57' E 031°59'0 0.0
2017-Feb-11 05:32N 46°57' E 031°59'0 0.0
2017-Feb-11 04:29N 46°57' E 031°59'0 0.0
2017-Feb-11 03:32N 46°57' E 031°59'0 0.0
2017-Feb-11 02:32N 46°57' E 031°59'0 0.0
2017-Feb-11 01:32N 46°57' E 031°59'0 0.0
2017-Feb-11 00:32N 46°57' E 031°59'0 0.0
2017-Feb-10 23:32N 46°57' E 031°59'0 0.0
2017-Feb-10 22:32N 46°57' E 031°59'0 0.0
2017-Feb-10 21:32N 46°57' E 031°59'0 0.0
2017-Feb-10 20:32N 46°57' E 031°59'0 0.0
2017-Feb-10 19:32N 46°57' E 031°59'0 0.0
2017-Feb-10 18:32N 46°57' E 031°59'0 0.0
2017-Feb-10 17:32N 46°57' E 031°59'0 0.0
2017-Feb-10 16:32N 46°57' E 031°59'0 0.0
2017-Feb-10 15:29N 46°57' E 031°59'0 0.0
2017-Feb-10 14:26N 46°57' E 031°59'0 0.0
2017-Feb-10 13:32N 46°57' E 031°59'0 0.0
2017-Feb-10 12:32N 46°57' E 031°59'0 0.0
2017-Feb-10 11:32N 46°57' E 031°59'0 0.0
2017-Feb-10 10:32N 46°57' E 031°59'0 0.0
2017-Feb-10 09:32N 46°57' E 031°59'0 0.0
2017-Feb-10 08:29N 46°57' E 031°59'0 0.0
2017-Feb-10 07:32N 46°57' E 031°59'0 0.0
2017-Feb-10 06:32N 46°57' E 031°59'0 0.0
2017-Feb-10 05:29N 46°57' E 031°59'0 0.0
2017-Feb-10 04:32N 46°57' E 031°59'0 0.0
2017-Feb-10 03:32N 46°57' E 031°59'0 0.0
2017-Feb-10 02:32N 46°57' E 031°59'0 0.0
2017-Feb-10 01:32N 46°57' E 031°59'0 0.0
2017-Feb-10 00:32N 46°57' E 031°59'0 0.0
2017-Feb-09 23:32N 46°57' E 031°59'  
Track history (hours):
 
Tides and Currents Weather Stations Pressure Air Temp Water Temp Dewpoint Dewpoint Depression Visibility Wind Speed Wind Dir Waves Ship Positions

Nibulon 1

Last reported at 2017-Feb-19 22:32 UTC. Time now 2017-Feb-21 03:06 UTC.
Position N 46°35' E 031°36'.

Length 38 m; draft 2.6 m.

Type: Tug. MMSI: 272641000.

Date/timePositionNaut miles runAvg speedWind from/ knotsBaromVisibWave heightAir tempDewpointWater temp
2017-Feb-19 22:32N 46°35' E 031°36'4 3.9
2017-Feb-19 21:24N 46°35' E 031°42'3 3.9
2017-Feb-19 20:33N 46°36' E 031°47'4 3.8
2017-Feb-19 19:33N 46°37' E 031°52'3 3.2
2017-Feb-19 18:33N 46°39' E 031°56'4 3.7
2017-Feb-19 17:34N 46°43' E 031°56'3 3.3
2017-Feb-19 16:34N 46°46' E 031°54'3 3.3
2017-Feb-19 15:33N 46°49' E 031°54'4 4.1
2017-Feb-19 14:34N 46°52' E 031°58'4 3.6
2017-Feb-19 13:34N 46°55' E 032°01'2 1.9
2017-Feb-19 12:29N 46°56' E 031°59'0 0.0
2017-Feb-19 11:29N 46°56' E 031°59'0 0.0
2017-Feb-19 10:32N 46°56' E 031°59'0 0.2
2017-Feb-19 09:32N 46°56' E 031°59'0 0.3
2017-Feb-19 08:33N 46°56' E 031°59'0 0.4
2017-Feb-19 07:30N 46°57' E 031°59'0 0.0
2017-Feb-19 06:29N 46°57' E 031°59'0 0.0
2017-Feb-19 05:29N 46°57' E 031°59'0 0.0
2017-Feb-19 04:29N 46°57' E 031°59'0 0.0
2017-Feb-19 03:29N 46°57' E 031°59'0 0.0
2017-Feb-19 02:29N 46°57' E 031°59'0 0.0
2017-Feb-19 01:29N 46°57' E 031°59'0 0.0
2017-Feb-19 00:29N 46°57' E 031°59'0 0.0
2017-Feb-18 23:31N 46°57' E 031°59'0 0.3
2017-Feb-18 22:31N 46°56' E 031°59'0 0.1
2017-Feb-18 21:31N 46°56' E 031°59'0 0.1
2017-Feb-18 20:31N 46°56' E 031°59'0 0.0
2017-Feb-18 19:31N 46°56' E 031°59'0 0.4
2017-Feb-18 18:31N 46°57' E 031°59'0 0.3
2017-Feb-18 17:28N 46°57' E 031°59'0 0.1
2017-Feb-18 16:33N 46°56' E 031°59'0 0.1
2017-Feb-18 15:32N 46°57' E 031°59'0 0.0
2017-Feb-18 14:32N 46°57' E 031°59'0 0.2
2017-Feb-18 13:31N 46°56' E 031°59'0 0.0
2017-Feb-18 12:32N 46°57' E 031°59'0 0.2
2017-Feb-18 11:32N 46°57' E 031°59'0 0.0
2017-Feb-18 10:32N 46°57' E 031°59'0 0.0
2017-Feb-18 09:32N 46°57' E 031°59'0 0.0
2017-Feb-18 08:32N 46°57' E 031°59'0 0.0
2017-Feb-18 07:32N 46°57' E 031°59'0 0.0
2017-Feb-18 06:32N 46°57' E 031°59'0 0.0
2017-Feb-18 05:32N 46°57' E 031°59'0 0.0
2017-Feb-18 04:32N 46°57' E 031°59'0 0.0
2017-Feb-18 03:32N 46°57' E 031°59'0 0.0
2017-Feb-18 02:32N 46°57' E 031°59'0 0.0
2017-Feb-18 01:32N 46°57' E 031°59'0 0.0
2017-Feb-18 00:32N 46°57' E 031°59'0 0.0
2017-Feb-17 23:32N 46°57' E 031°59'0 0.0
2017-Feb-17 22:32N 46°57' E 031°59'0 0.0
2017-Feb-17 21:32N 46°57' E 031°59'0 0.0
2017-Feb-17 20:32N 46°57' E 031°59'0 0.0
2017-Feb-17 19:32N 46°57' E 031°59'0 0.0
2017-Feb-17 18:32N 46°57' E 031°59'0 0.0
2017-Feb-17 17:32N 46°57' E 031°59'0 0.0
2017-Feb-17 16:32N 46°57' E 031°59'0 0.0
2017-Feb-17 15:32N 46°57' E 031°59'0 0.0
2017-Feb-17 14:32N 46°57' E 031°59'0 0.0
2017-Feb-17 13:32N 46°57' E 031°59'0 0.0
2017-Feb-17 12:32N 46°57' E 031°59'0 0.0
2017-Feb-17 11:32N 46°57' E 031°59'0 0.0
2017-Feb-17 10:32N 46°57' E 031°59'0 0.0
2017-Feb-17 09:32N 46°57' E 031°59'0 0.0
2017-Feb-17 08:26N 46°57' E 031°59'0 0.0
2017-Feb-17 07:32N 46°57' E 031°59'0 0.0
2017-Feb-17 06:32N 46°57' E 031°59'0 0.0
2017-Feb-17 05:32N 46°57' E 031°59'0 0.0
2017-Feb-17 04:32N 46°57' E 031°59'0 0.0
2017-Feb-17 03:29N 46°57' E 031°59'0 0.0
2017-Feb-17 02:32N 46°57' E 031°59'0 0.0
2017-Feb-17 01:32N 46°57' E 031°59'0 0.0
2017-Feb-17 00:32N 46°57' E 031°59'0 0.0
2017-Feb-16 23:32N 46°57' E 031°59'0 0.0
2017-Feb-16 22:32N 46°57' E 031°59'0 0.0
2017-Feb-16 21:32N 46°57' E 031°59'0 0.0
2017-Feb-16 20:32N 46°57' E 031°59'0 0.0
2017-Feb-16 19:26N 46°57' E 031°59'0 0.0
2017-Feb-16 18:32N 46°57' E 031°59'0 0.0
2017-Feb-16 17:32N 46°57' E 031°59'0 0.0
2017-Feb-16 16:32N 46°57' E 031°59'0 0.0
2017-Feb-16 15:32N 46°57' E 031°59'0 0.0
2017-Feb-16 14:32N 46°57' E 031°59'0 0.0
2017-Feb-16 13:32N 46°57' E 031°59'0 0.0
2017-Feb-16 12:32N 46°57' E 031°59'0 0.0
2017-Feb-16 11:32N 46°57' E 031°59'0 0.0
2017-Feb-16 10:32N 46°57' E 031°59'0 0.0
2017-Feb-16 09:32N 46°57' E 031°59'0 0.0
2017-Feb-16 08:32N 46°57' E 031°59'0 0.0
2017-Feb-16 07:32N 46°57' E 031°59'0 0.0
2017-Feb-16 06:32N 46°57' E 031°59'0 0.0
2017-Feb-16 05:32N 46°57' E 031°59'0 0.0
2017-Feb-16 04:32N 46°57' E 031°59'0 0.0
2017-Feb-16 03:32N 46°57' E 031°59'0 0.0
2017-Feb-16 02:32N 46°57' E 031°59'0 0.0
2017-Feb-16 01:32N 46°57' E 031°59'0 0.0
2017-Feb-16 00:32N 46°57' E 031°59'0 0.0
2017-Feb-15 23:32N 46°57' E 031°59'0 0.0
2017-Feb-15 22:32N 46°57' E 031°59'0 0.0
2017-Feb-15 21:32N 46°57' E 031°59'0 0.0
2017-Feb-15 20:32N 46°57' E 031°59'0 0.0
2017-Feb-15 19:32N 46°57' E 031°59'0 0.0
2017-Feb-15 18:29N 46°57' E 031°59'0 0.0
2017-Feb-15 17:32N 46°57' E 031°59'0 0.0
2017-Feb-15 16:32N 46°57' E 031°59'0 0.0
2017-Feb-15 15:32N 46°57' E 031°59'0 0.0
2017-Feb-15 14:32N 46°57' E 031°59'0 0.0
2017-Feb-15 13:32N 46°57' E 031°59'0 0.0
2017-Feb-15 12:32N 46°57' E 031°59'0 0.0
2017-Feb-15 11:32N 46°57' E 031°59'0 0.0
2017-Feb-15 10:32N 46°57' E 031°59'0 0.0
2017-Feb-15 09:32N 46°57' E 031°59'0 0.0
2017-Feb-15 08:32N 46°57' E 031°59'0 0.0
2017-Feb-15 07:32N 46°57' E 031°59'0 0.0
2017-Feb-15 06:32N 46°57' E 031°59'0 0.0
2017-Feb-15 05:32N 46°57' E 031°59'0 0.0
2017-Feb-15 04:32N 46°57' E 031°59'0 0.0
2017-Feb-15 03:32N 46°57' E 031°59'0 0.0
2017-Feb-15 02:32N 46°57' E 031°59'0 0.0
2017-Feb-15 01:32N 46°57' E 031°59'0 0.0
2017-Feb-15 00:32N 46°57' E 031°59'0 0.0
2017-Feb-14 23:26N 46°57' E 031°59'0 0.0
2017-Feb-14 22:32N 46°57' E 031°59'0 0.0
2017-Feb-14 21:32N 46°57' E 031°59'0 0.0
2017-Feb-14 20:32N 46°57' E 031°59'0 0.0
2017-Feb-14 19:32N 46°57' E 031°59'0 0.0
2017-Feb-14 18:32N 46°57' E 031°59'0 0.0
2017-Feb-14 17:32N 46°57' E 031°59'0 0.0
2017-Feb-14 16:32N 46°57' E 031°59'0 0.0
2017-Feb-14 15:32N 46°57' E 031°59'0 0.0
2017-Feb-14 14:29N 46°57' E 031°59'0 0.0
2017-Feb-14 13:32N 46°57' E 031°59'0 0.0
2017-Feb-14 12:32N 46°57' E 031°59'0 0.0
2017-Feb-14 11:32N 46°57' E 031°59'0 0.0
2017-Feb-14 10:29N 46°57' E 031°59'0 0.0
2017-Feb-14 09:32N 46°57' E 031°59'0 0.0
2017-Feb-14 08:32N 46°57' E 031°59'0 0.0
2017-Feb-14 07:32N 46°57' E 031°59'0 0.0
2017-Feb-14 06:32N 46°57' E 031°59'0 0.0
2017-Feb-14 05:32N 46°57' E 031°59'0 0.0
2017-Feb-14 04:32N 46°57' E 031°59'0 0.0
2017-Feb-14 03:32N 46°57' E 031°59'0 0.0
2017-Feb-14 02:32N 46°57' E 031°59'0 0.0
2017-Feb-14 01:32N 46°57' E 031°59'0 0.0
2017-Feb-14 00:32N 46°57' E 031°59'0 0.0
2017-Feb-13 23:32N 46°57' E 031°59'0 0.0
2017-Feb-13 22:32N 46°57' E 031°59'0 0.0
2017-Feb-13 21:32N 46°57' E 031°59'0 0.0
2017-Feb-13 20:29N 46°57' E 031°59'0 0.0
2017-Feb-13 19:32N 46°57' E 031°59'0 0.0
2017-Feb-13 18:29N 46°57' E 031°59'0 0.0
2017-Feb-13 17:32N 46°57' E 031°59'0 0.0
2017-Feb-13 16:32N 46°57' E 031°59'0 0.0
2017-Feb-13 15:32N 46°57' E 031°59'0 0.0
2017-Feb-13 14:32N 46°57' E 031°59'0 0.0
2017-Feb-13 13:32N 46°57' E 031°59'0 0.0
2017-Feb-13 12:32N 46°57' E 031°59'0 0.0
2017-Feb-13 11:32N 46°57' E 031°59'0 0.0
2017-Feb-13 10:32N 46°57' E 031°59'0 0.0
2017-Feb-13 09:32N 46°57' E 031°59'0 0.0
2017-Feb-13 08:32N 46°57' E 031°59'0 0.0
2017-Feb-13 07:29N 46°57' E 031°59'0 0.0
2017-Feb-13 06:32N 46°57' E 031°59'0 0.0
2017-Feb-13 05:32N 46°57' E 031°59'0 0.0
2017-Feb-13 04:32N 46°57' E 031°59'0 0.0
2017-Feb-13 03:32N 46°57' E 031°59'0 0.0
2017-Feb-13 02:32N 46°57' E 031°59'0 0.0
2017-Feb-13 01:32N 46°57' E 031°59'0 0.0
2017-Feb-13 00:32N 46°57' E 031°59'0 0.0
2017-Feb-12 23:32N 46°57' E 031°59'0 0.0
2017-Feb-12 22:32N 46°57' E 031°59'0 0.0
2017-Feb-12 21:32N 46°57' E 031°59'0 0.0
2017-Feb-12 20:32N 46°57' E 031°59'0 0.0
2017-Feb-12 19:32N 46°57' E 031°59'0 0.0
2017-Feb-12 18:32N 46°57' E 031°59'0 0.0
2017-Feb-12 17:32N 46°57' E 031°59'0 0.0
2017-Feb-12 16:32N 46°57' E 031°59'0 0.0
2017-Feb-12 15:32N 46°57' E 031°59'0 0.0
2017-Feb-12 14:32N 46°57' E 031°59'0 0.0
2017-Feb-12 13:32N 46°57' E 031°59'0 0.0
2017-Feb-12 12:32N 46°57' E 031°59'0 0.0
2017-Feb-12 11:32N 46°57' E 031°59'0 0.0
2017-Feb-12 10:29N 46°57' E 031°59'0 0.0
2017-Feb-12 09:32N 46°57' E 031°59'0 0.0
2017-Feb-12 08:32N 46°57' E 031°59'0 0.0
2017-Feb-12 07:32N 46°57' E 031°59'0 0.0
2017-Feb-12 06:32N 46°57' E 031°59'0 0.0
2017-Feb-12 05:32N 46°57' E 031°59'0 0.0
2017-Feb-12 04:32N 46°57' E 031°59'0 0.0
2017-Feb-12 03:32N 46°57' E 031°59'0 0.0
2017-Feb-12 02:32N 46°57' E 031°59'0 0.0
2017-Feb-12 01:32N 46°57' E 031°59'0 0.0
2017-Feb-12 00:32N 46°57' E 031°59'0 0.0
2017-Feb-11 23:32N 46°57' E 031°59'0 0.0
2017-Feb-11 22:32N 46°57' E 031°59'0 0.0
2017-Feb-11 21:32N 46°57' E 031°59'0 0.0
2017-Feb-11 20:32N 46°57' E 031°59'0 0.0
2017-Feb-11 19:32N 46°57' E 031°59'0 0.0
2017-Feb-11 18:32N 46°57' E 031°59'0 0.0
2017-Feb-11 17:32N 46°57' E 031°59'0 0.0
2017-Feb-11 16:32N 46°57' E 031°59'0 0.0
2017-Feb-11 15:32N 46°57' E 031°59'0 0.0
2017-Feb-11 14:32N 46°57' E 031°59'0 0.0
2017-Feb-11 13:32N 46°57' E 031°59'0 0.0
2017-Feb-11 12:32N 46°57' E 031°59'0 0.0
2017-Feb-11 11:32N 46°57' E 031°59'0 0.0
2017-Feb-11 10:29N 46°57' E 031°59'0 0.0
2017-Feb-11 09:32N 46°57' E 031°59'0 0.0
2017-Feb-11 08:32N 46°57' E 031°59'0 0.0
2017-Feb-11 07:32N 46°57' E 031°59'0 0.0
2017-Feb-11 06:32N 46°57' E 031°59'0 0.0
2017-Feb-11 05:32N 46°57' E 031°59'0 0.0
2017-Feb-11 04:29N 46°57' E 031°59'0 0.0
2017-Feb-11 03:32N 46°57' E 031°59'0 0.0
2017-Feb-11 02:32N 46°57' E 031°59'0 0.0
2017-Feb-11 01:32N 46°57' E 031°59'0 0.0
2017-Feb-11 00:32N 46°57' E 031°59'0 0.0
2017-Feb-10 23:32N 46°57' E 031°59'0 0.0
2017-Feb-10 22:32N 46°57' E 031°59'0 0.0
2017-Feb-10 21:32N 46°57' E 031°59'0 0.0
2017-Feb-10 20:32N 46°57' E 031°59'0 0.0
2017-Feb-10 19:32N 46°57' E 031°59'0 0.0
2017-Feb-10 18:32N 46°57' E 031°59'0 0.0
2017-Feb-10 17:32N 46°57' E 031°59'0 0.0
2017-Feb-10 16:32N 46°57' E 031°59'0 0.0
2017-Feb-10 15:29N 46°57' E 031°59'0 0.0
2017-Feb-10 14:26N 46°57' E 031°59'0 0.0
2017-Feb-10 13:32N 46°57' E 031°59'0 0.0
2017-Feb-10 12:32N 46°57' E 031°59'0 0.0
2017-Feb-10 11:32N 46°57' E 031°59'0 0.0
2017-Feb-10 10:32N 46°57' E 031°59'0 0.0
2017-Feb-10 09:32N 46°57' E 031°59'0 0.0
2017-Feb-10 08:29N 46°57' E 031°59'0 0.0
2017-Feb-10 07:32N 46°57' E 031°59'0 0.0
2017-Feb-10 06:32N 46°57' E 031°59'0 0.0
2017-Feb-10 05:29N 46°57' E 031°59'0 0.0
2017-Feb-10 04:32N 46°57' E 031°59'0 0.0
2017-Feb-10 03:32N 46°57' E 031°59'0 0.0
2017-Feb-10 02:32N 46°57' E 031°59'0 0.0
2017-Feb-10 01:32N 46°57' E 031°59'0 0.0
2017-Feb-10 00:32N 46°57' E 031°59'0 0.0
2017-Feb-09 23:32N 46°57' E 031°59'  

Dump ship's entire track history